El Paso — WDC2687 — position and weather

sailwx.info

Track history (hours):
 
Tides and Currents Weather Stations Pressure Air Temp Water Temp Dewpoint Dewpoint Depression Visibility Wind Speed Wind Dir Waves Ship Positions

El Paso

Owner: Kirby Inland Marine LP, Houston, TX. More information available from US FCC via Universal Licensing System and Coast Guard Vessel Documentation Center.

Last reported at 2018-Jun-23 07:44 UTC. Time now 2018-Jun-25 01:58 UTC.
Position N 29°44' W 095°03'.

Length 114 m; draft 3 m.

Type: . MMSI: 366996420.

Date/timePositionNaut miles runAvg speedWind from/ knotsBaromVisibWave heightAir tempDewpointWater temp
2018-Jun-23 07:44N 29°44' W 095°03'1 4.9
2018-Jun-23 07:30N 29°45' W 095°04'2 3.9
2018-Jun-23 06:56N 29°45' W 095°06'2 4.9
2018-Jun-23 06:30N 29°44' W 095°09'2 4.1
2018-Jun-23 05:59N 29°45' W 095°11'2 3.4
2018-Jun-23 05:20N 29°44' W 095°13'0 0.1
2018-Jun-23 05:00N 29°44' W 095°13'0 0.3
2018-Jun-23 04:30N 29°44' W 095°13'0 0.0
2018-Jun-22 07:39N 29°44' W 095°13'  
2018-Jun-17 15:04N 29°43' W 095°01'1 7.7
2018-Jun-17 14:57N 29°42' W 095°01'4 7.5
2018-Jun-17 14:28N 29°40' W 094°58'4 7.8
2018-Jun-17 14:00N 29°36' W 094°57'28 1.8
2018-Jun-16 22:56N 29°35' W 094°25'3 6.1
2018-Jun-16 22:31N 29°36' W 094°22'3 6.3
2018-Jun-16 22:00N 29°38' W 094°19'3 6.8
2018-Jun-16 21:30N 29°39' W 094°15'3 6.8
2018-Jun-16 21:00N 29°41' W 094°12'3 6.7
2018-Jun-16 20:30N 29°42' W 094°08'3 6.8
2018-Jun-16 20:00N 29°44' W 094°05'3 6.7
2018-Jun-16 19:31N 29°46' W 094°02'3 6.2
2018-Jun-16 19:00N 29°49' W 093°60'3 5.9
2018-Jun-16 18:30N 29°50' W 093°57'3 6.1
2018-Jun-16 18:01N 29°53' W 093°55'3 6.5
2018-Jun-16 17:30N 29°55' W 093°53'3 6.5
2018-Jun-16 17:00N 29°58' W 093°52'3 6.1
2018-Jun-16 16:31N 29°59' W 093°55'1 1.1
2018-Jun-16 16:00N 29°60' W 093°55'0 0.0
2018-Jun-16 15:30N 29°60' W 093°55'0 0.0
2018-Jun-16 15:01N 29°60' W 093°55'0 0.0
2018-Jun-16 14:30N 29°60' W 093°55'0 0.7
2018-Jun-16 14:01N 29°60' W 093°55'3 5.9
2018-Jun-16 13:30N 29°58' W 093°52'4 8.3
2018-Jun-16 13:00N 29°55' W 093°53'4 8.3
2018-Jun-16 12:31N 29°51' W 093°56'0 0.1
2018-Jun-16 11:55N 29°52' W 093°56'0 0.0
2018-Jun-16 11:28N 29°52' W 093°56'0 0.0
2018-Jun-16 10:58N 29°52' W 093°56'0 0.0
2018-Jun-16 10:28N 29°52' W 093°56'0 0.0
2018-Jun-16 09:58N 29°52' W 093°56'0 0.0
2018-Jun-16 09:28N 29°52' W 093°56'0 0.0
2018-Jun-16 08:58N 29°52' W 093°56'0 0.0
2018-Jun-16 08:28N 29°52' W 093°56'0 0.0
2018-Jun-16 07:58N 29°52' W 093°56'0 0.0
2018-Jun-16 07:28N 29°52' W 093°56'0 0.0
2018-Jun-16 06:58N 29°52' W 093°56'0 0.0
2018-Jun-16 06:28N 29°52' W 093°56'0 0.0
2018-Jun-16 05:58N 29°52' W 093°56'0 0.0
2018-Jun-16 05:28N 29°52' W 093°56'0 0.0
2018-Jun-16 04:58N 29°52' W 093°56'0 0.0
2018-Jun-16 04:28N 29°52' W 093°56'0 0.0
2018-Jun-16 03:58N 29°52' W 093°56'0 0.0
2018-Jun-16 03:28N 29°52' W 093°56'0 0.0
2018-Jun-16 02:58N 29°52' W 093°56'0 0.0
2018-Jun-16 02:28N 29°52' W 093°56'0 0.0
2018-Jun-16 01:58N 29°52' W 093°56'0 0.0
2018-Jun-16 01:30N 29°52' W 093°56'0 0.4
2018-Jun-16 01:00N 29°52' W 093°56'0 0.1
2018-Jun-16 00:31N 29°52' W 093°56'0 0.5
2018-Jun-15 23:58N 29°52' W 093°56'0 0.0
2018-Jun-15 23:28N 29°52' W 093°56'0 0.0
2018-Jun-15 22:58N 29°52' W 093°56'0 0.0
2018-Jun-15 22:28N 29°52' W 093°56'0 0.0
2018-Jun-15 21:58N 29°52' W 093°56'0 0.0
2018-Jun-15 21:28N 29°52' W 093°56'0 0.0
2018-Jun-15 20:58N 29°52' W 093°56'0 0.0
2018-Jun-15 20:28N 29°52' W 093°56'0 0.0
2018-Jun-15 19:58N 29°52' W 093°56'0 0.0
2018-Jun-15 19:28N 29°52' W 093°56'0 0.0
2018-Jun-15 18:58N 29°52' W 093°56'0 0.0
2018-Jun-15 18:28N 29°52' W 093°56'0 0.0
2018-Jun-15 17:58N 29°52' W 093°56'0 0.0
2018-Jun-15 17:28N 29°52' W 093°56'0 0.0
2018-Jun-15 16:58N 29°52' W 093°56'0 0.0
2018-Jun-15 16:28N 29°52' W 093°56'0 0.0
2018-Jun-15 15:58N 29°52' W 093°56'0 0.0
2018-Jun-15 15:28N 29°52' W 093°56'0 0.0
2018-Jun-15 14:58N 29°52' W 093°56'0 0.0
2018-Jun-15 14:30N 29°52' W 093°56'0 0.0
2018-Jun-15 14:00N 29°52' W 093°56'0 0.0
2018-Jun-15 13:30N 29°52' W 093°56'0 0.0
2018-Jun-15 13:00N 29°52' W 093°56'0 0.5
2018-Jun-15 12:30N 29°52' W 093°56'0 0.1
2018-Jun-15 12:00N 29°52' W 093°56'0 0.5
2018-Jun-15 11:30N 29°52' W 093°56'0 0.0
2018-Jun-15 11:00N 29°52' W 093°56'0 0.0
2018-Jun-15 10:30N 29°52' W 093°56'0 0.0
2018-Jun-15 10:00N 29°52' W 093°56'0 0.5
2018-Jun-15 09:30N 29°52' W 093°56'0 0.5
2018-Jun-15 09:00N 29°52' W 093°56'0 0.1
2018-Jun-15 08:30N 29°51' W 093°56'0 0.5
2018-Jun-15 08:00N 29°52' W 093°56'0 0.0
2018-Jun-15 07:30N 29°52' W 093°56'0 0.1
2018-Jun-15 07:00N 29°52' W 093°56'2 3.5
2018-Jun-15 06:30N 29°50' W 093°57'2 3.8
2018-Jun-15 06:00N 29°49' W 093°59'2 4.6
2018-Jun-15 05:30N 29°47' W 094°01'3 5.3
2018-Jun-15 05:00N 29°46' W 094°03'3 5.1
2018-Jun-15 04:30N 29°44' W 094°06'3 5.1
2018-Jun-15 04:00N 29°43' W 094°08'2 4.4
2018-Jun-15 03:30N 29°41' W 094°10'2 4.8
2018-Jun-15 03:00N 29°41' W 094°13'2 4.9
2018-Jun-15 02:30N 29°39' W 094°15'2 4.5
2018-Jun-15 02:00N 29°38' W 094°17'2 4.3
2018-Jun-15 01:30N 29°37' W 094°20'2 4.2
2018-Jun-15 01:00N 29°36' W 094°22'2 3.7
2018-Jun-15 00:28N 29°36' W 094°24'18 3.5
2018-Jun-14 19:26N 29°27' W 094°41'3 4.3
2018-Jun-14 18:47N 29°25' W 094°44'1 4.3
2018-Jun-14 18:30N 29°24' W 094°45'2 4.6
2018-Jun-14 18:00N 29°23' W 094°47'2 3.4
2018-Jun-14 17:30N 29°23' W 094°49'8 6.4
2018-Jun-14 16:13N 29°30' W 094°53'3 6.2
2018-Jun-14 15:46N 29°33' W 094°54'2 6.3
2018-Jun-14 15:29N 29°34' W 094°56'4 6.5
2018-Jun-14 14:54N 29°38' W 094°58'3 6.4
2018-Jun-14 14:28N 29°40' W 094°59'  
Track history (hours):
 
Tides and Currents Weather Stations Pressure Air Temp Water Temp Dewpoint Dewpoint Depression Visibility Wind Speed Wind Dir Waves Ship Positions

El Paso

Owner: Kirby Inland Marine LP, Houston, TX. More information available from US FCC via Universal Licensing System and Coast Guard Vessel Documentation Center.

Last reported at 2018-Jun-23 07:44 UTC. Time now 2018-Jun-25 01:58 UTC.
Position N 29°44' W 095°03'.

Length 114 m; draft 3 m.

Type: . MMSI: 366996420.

Date/timePositionNaut miles runAvg speedWind from/ knotsBaromVisibWave heightAir tempDewpointWater temp
2018-Jun-23 07:44N 29°44' W 095°03'1 4.9
2018-Jun-23 07:30N 29°45' W 095°04'2 3.9
2018-Jun-23 06:56N 29°45' W 095°06'2 4.9
2018-Jun-23 06:30N 29°44' W 095°09'2 4.1
2018-Jun-23 05:59N 29°45' W 095°11'2 3.4
2018-Jun-23 05:20N 29°44' W 095°13'0 0.1
2018-Jun-23 05:00N 29°44' W 095°13'0 0.3
2018-Jun-23 04:30N 29°44' W 095°13'0 0.0
2018-Jun-22 07:39N 29°44' W 095°13'  
2018-Jun-17 15:04N 29°43' W 095°01'1 7.7
2018-Jun-17 14:57N 29°42' W 095°01'4 7.5
2018-Jun-17 14:28N 29°40' W 094°58'4 7.8
2018-Jun-17 14:00N 29°36' W 094°57'28 1.8
2018-Jun-16 22:56N 29°35' W 094°25'3 6.1
2018-Jun-16 22:31N 29°36' W 094°22'3 6.3
2018-Jun-16 22:00N 29°38' W 094°19'3 6.8
2018-Jun-16 21:30N 29°39' W 094°15'3 6.8
2018-Jun-16 21:00N 29°41' W 094°12'3 6.7
2018-Jun-16 20:30N 29°42' W 094°08'3 6.8
2018-Jun-16 20:00N 29°44' W 094°05'3 6.7
2018-Jun-16 19:31N 29°46' W 094°02'3 6.2
2018-Jun-16 19:00N 29°49' W 093°60'3 5.9
2018-Jun-16 18:30N 29°50' W 093°57'3 6.1
2018-Jun-16 18:01N 29°53' W 093°55'3 6.5
2018-Jun-16 17:30N 29°55' W 093°53'3 6.5
2018-Jun-16 17:00N 29°58' W 093°52'3 6.1
2018-Jun-16 16:31N 29°59' W 093°55'1 1.1
2018-Jun-16 16:00N 29°60' W 093°55'0 0.0
2018-Jun-16 15:30N 29°60' W 093°55'0 0.0
2018-Jun-16 15:01N 29°60' W 093°55'0 0.0
2018-Jun-16 14:30N 29°60' W 093°55'0 0.7
2018-Jun-16 14:01N 29°60' W 093°55'3 5.9
2018-Jun-16 13:30N 29°58' W 093°52'4 8.3
2018-Jun-16 13:00N 29°55' W 093°53'4 8.3
2018-Jun-16 12:31N 29°51' W 093°56'0 0.1
2018-Jun-16 11:55N 29°52' W 093°56'0 0.0
2018-Jun-16 11:28N 29°52' W 093°56'0 0.0
2018-Jun-16 10:58N 29°52' W 093°56'0 0.0
2018-Jun-16 10:28N 29°52' W 093°56'0 0.0
2018-Jun-16 09:58N 29°52' W 093°56'0 0.0
2018-Jun-16 09:28N 29°52' W 093°56'0 0.0
2018-Jun-16 08:58N 29°52' W 093°56'0 0.0
2018-Jun-16 08:28N 29°52' W 093°56'0 0.0
2018-Jun-16 07:58N 29°52' W 093°56'0 0.0
2018-Jun-16 07:28N 29°52' W 093°56'0 0.0
2018-Jun-16 06:58N 29°52' W 093°56'0 0.0
2018-Jun-16 06:28N 29°52' W 093°56'0 0.0
2018-Jun-16 05:58N 29°52' W 093°56'0 0.0
2018-Jun-16 05:28N 29°52' W 093°56'0 0.0
2018-Jun-16 04:58N 29°52' W 093°56'0 0.0
2018-Jun-16 04:28N 29°52' W 093°56'0 0.0
2018-Jun-16 03:58N 29°52' W 093°56'0 0.0
2018-Jun-16 03:28N 29°52' W 093°56'0 0.0
2018-Jun-16 02:58N 29°52' W 093°56'0 0.0
2018-Jun-16 02:28N 29°52' W 093°56'0 0.0
2018-Jun-16 01:58N 29°52' W 093°56'0 0.0
2018-Jun-16 01:30N 29°52' W 093°56'0 0.4
2018-Jun-16 01:00N 29°52' W 093°56'0 0.1
2018-Jun-16 00:31N 29°52' W 093°56'0 0.5
2018-Jun-15 23:58N 29°52' W 093°56'0 0.0
2018-Jun-15 23:28N 29°52' W 093°56'0 0.0
2018-Jun-15 22:58N 29°52' W 093°56'0 0.0
2018-Jun-15 22:28N 29°52' W 093°56'0 0.0
2018-Jun-15 21:58N 29°52' W 093°56'0 0.0
2018-Jun-15 21:28N 29°52' W 093°56'0 0.0
2018-Jun-15 20:58N 29°52' W 093°56'0 0.0
2018-Jun-15 20:28N 29°52' W 093°56'0 0.0
2018-Jun-15 19:58N 29°52' W 093°56'0 0.0
2018-Jun-15 19:28N 29°52' W 093°56'0 0.0
2018-Jun-15 18:58N 29°52' W 093°56'0 0.0
2018-Jun-15 18:28N 29°52' W 093°56'0 0.0
2018-Jun-15 17:58N 29°52' W 093°56'0 0.0
2018-Jun-15 17:28N 29°52' W 093°56'0 0.0
2018-Jun-15 16:58N 29°52' W 093°56'0 0.0
2018-Jun-15 16:28N 29°52' W 093°56'0 0.0
2018-Jun-15 15:58N 29°52' W 093°56'0 0.0
2018-Jun-15 15:28N 29°52' W 093°56'0 0.0
2018-Jun-15 14:58N 29°52' W 093°56'0 0.0
2018-Jun-15 14:30N 29°52' W 093°56'0 0.0
2018-Jun-15 14:00N 29°52' W 093°56'0 0.0
2018-Jun-15 13:30N 29°52' W 093°56'0 0.0
2018-Jun-15 13:00N 29°52' W 093°56'0 0.5
2018-Jun-15 12:30N 29°52' W 093°56'0 0.1
2018-Jun-15 12:00N 29°52' W 093°56'0 0.5
2018-Jun-15 11:30N 29°52' W 093°56'0 0.0
2018-Jun-15 11:00N 29°52' W 093°56'0 0.0
2018-Jun-15 10:30N 29°52' W 093°56'0 0.0
2018-Jun-15 10:00N 29°52' W 093°56'0 0.5
2018-Jun-15 09:30N 29°52' W 093°56'0 0.5
2018-Jun-15 09:00N 29°52' W 093°56'0 0.1
2018-Jun-15 08:30N 29°51' W 093°56'0 0.5
2018-Jun-15 08:00N 29°52' W 093°56'0 0.0
2018-Jun-15 07:30N 29°52' W 093°56'0 0.1
2018-Jun-15 07:00N 29°52' W 093°56'2 3.5
2018-Jun-15 06:30N 29°50' W 093°57'2 3.8
2018-Jun-15 06:00N 29°49' W 093°59'2 4.6
2018-Jun-15 05:30N 29°47' W 094°01'3 5.3
2018-Jun-15 05:00N 29°46' W 094°03'3 5.1
2018-Jun-15 04:30N 29°44' W 094°06'3 5.1
2018-Jun-15 04:00N 29°43' W 094°08'2 4.4
2018-Jun-15 03:30N 29°41' W 094°10'2 4.8
2018-Jun-15 03:00N 29°41' W 094°13'2 4.9
2018-Jun-15 02:30N 29°39' W 094°15'2 4.5
2018-Jun-15 02:00N 29°38' W 094°17'2 4.3
2018-Jun-15 01:30N 29°37' W 094°20'2 4.2
2018-Jun-15 01:00N 29°36' W 094°22'2 3.7
2018-Jun-15 00:28N 29°36' W 094°24'18 3.5
2018-Jun-14 19:26N 29°27' W 094°41'3 4.3
2018-Jun-14 18:47N 29°25' W 094°44'1 4.3
2018-Jun-14 18:30N 29°24' W 094°45'2 4.6
2018-Jun-14 18:00N 29°23' W 094°47'2 3.4
2018-Jun-14 17:30N 29°23' W 094°49'8 6.4
2018-Jun-14 16:13N 29°30' W 094°53'3 6.2
2018-Jun-14 15:46N 29°33' W 094°54'2 6.3
2018-Jun-14 15:29N 29°34' W 094°56'4 6.5
2018-Jun-14 14:54N 29°38' W 094°58'3 6.4
2018-Jun-14 14:28N 29°40' W 094°59'  

Dump ship's entire track history